createdAt,value
2022-09-17T00:04:11.056Z,100156.63
2022-09-17T00:19:41.731Z,100163.00
2022-09-17T00:24:48.797Z,100167.38
2022-09-17T00:35:03.828Z,100168.06
2022-09-17T00:45:20.796Z,100166.37
2022-09-17T00:50:28.096Z,100164.75
2022-09-17T00:55:38.881Z,100165.56
2022-09-17T01:17:08.295Z,100158.47
2022-09-17T01:22:16.657Z,100157.16
2022-09-17T01:27:51.951Z,100157.53
2022-09-17T01:33:12.302Z,100153.88
2022-09-17T01:49:13.956Z,100166.06
2022-09-17T01:59:55.243Z,100159.19
2022-09-17T02:05:06.045Z,100170.72
2022-09-17T02:10:14.528Z,100171.56
2022-09-17T02:20:44.711Z,100169.69
2022-09-17T02:25:55.586Z,100183.31
2022-09-17T02:31:03.759Z,100174.28
2022-09-17T02:52:11.850Z,100172.47
2022-09-17T02:57:21.364Z,100173.38
2022-09-17T03:02:28.401Z,100176.03
2022-09-17T03:07:37.606Z,100175.13
2022-09-17T03:12:40.833Z,100176.28
2022-09-17T03:17:43.538Z,100175.84
2022-09-17T03:22:53.225Z,100175.31
2022-09-17T03:27:56.330Z,100176.56
2022-09-17T03:32:59.112Z,100177.06
2022-09-17T03:38:07.145Z,100178.91
2022-09-17T03:43:10.262Z,100177.81
2022-09-17T03:48:12.973Z,100178.12
2022-09-17T03:53:22.112Z,100178.91
2022-09-17T03:58:24.824Z,100180.09
2022-09-17T04:03:28.640Z,100180.28
2022-09-17T04:32:18.429Z,100198.19
2022-09-17T04:42:46.769Z,100200.69
2022-09-17T04:58:39.449Z,100232.72
2022-09-17T05:03:42.245Z,100221.97
2022-09-17T05:08:45.822Z,100223.97
2022-09-17T05:13:54.287Z,100225.16
2022-09-17T05:18:58.689Z,100234.34
2022-09-17T05:24:02.438Z,100224.00
2022-09-17T05:35:46.549Z,100232.12
2022-09-17T05:40:49.620Z,100233.06
2022-09-17T06:06:04.527Z,100252.22
2022-09-17T06:11:12.720Z,100259.59
2022-09-17T06:23:15.877Z,100245.56
2022-09-17T06:28:19.072Z,100251.31
2022-09-17T06:33:22.324Z,100262.19
2022-09-17T06:44:01.263Z,100249.41
2022-09-17T06:49:04.069Z,100250.94
2022-09-17T06:54:06.868Z,100253.59
2022-09-17T07:15:32.276Z,100268.66
2022-09-17T07:20:35.086Z,100266.69
2022-09-17T07:25:38.005Z,100263.53
2022-09-17T07:52:48.687Z,100286.25
2022-09-17T08:13:23.534Z,100294.72
2022-09-17T08:23:43.795Z,100306.81
2022-09-17T08:28:47.722Z,100300.44
2022-09-17T08:39:09.410Z,100284.87
2022-09-17T09:01:46.680Z,100303.41
2022-09-17T09:06:53.461Z,100321.63
2022-09-17T09:17:29.745Z,100313.25
2022-09-17T09:28:21.815Z,100313.84
2022-09-17T09:33:29.719Z,100304.19
2022-09-17T09:38:35.092Z,100308.31
2022-09-17T09:44:03.136Z,100307.50
2022-09-17T09:49:17.679Z,100306.41
2022-09-17T09:54:36.095Z,100309.16
2022-09-17T09:59:44.634Z,100309.44
2022-09-17T10:04:52.722Z,100313.03
2022-09-17T10:10:10.395Z,100304.44
2022-09-17T10:15:28.756Z,100301.87
2022-09-17T10:20:32.006Z,100302.34
2022-09-17T10:25:36.294Z,100302.56
2022-09-17T10:36:16.988Z,100310.47
2022-09-17T10:41:22.176Z,100308.84
2022-09-17T10:46:31.846Z,100304.22
2022-09-17T10:51:40.412Z,100305.44
2022-09-17T10:56:50.730Z,100317.12
2022-09-17T11:13:05.434Z,100304.13
2022-09-17T11:18:42.341Z,100303.41
2022-09-17T11:24:16.619Z,100313.47
2022-09-17T11:35:26.319Z,100300.75
2022-09-17T11:45:40.307Z,100305.63
2022-09-17T12:06:37.482Z,100325.25
2022-09-17T12:22:28.275Z,100322.44
2022-09-17T12:27:39.231Z,100328.87
2022-09-17T12:33:03.292Z,100335.31
2022-09-17T12:38:24.764Z,100332.63
2022-09-17T12:43:44.292Z,100339.59
2022-09-17T12:49:04.776Z,100339.16
2022-09-17T12:54:26.418Z,100325.66
2022-09-17T12:59:33.497Z,100312.44
2022-09-17T13:05:06.408Z,100314.13
2022-09-17T13:21:33.157Z,100314.94
2022-09-17T13:26:39.654Z,100319.19
2022-09-17T13:37:20.689Z,100311.09
2022-09-17T13:42:26.935Z,100320.47
2022-09-17T13:47:32.672Z,100338.97
2022-09-17T13:58:00.298Z,100333.72
2022-09-17T14:08:47.898Z,100339.31
2022-09-17T14:13:58.760Z,100336.31
2022-09-17T14:19:05.962Z,100329.22
2022-09-17T14:24:23.780Z,100336.69
2022-09-17T14:29:44.408Z,100344.44
2022-09-17T14:34:47.699Z,100342.53
2022-09-17T14:39:56.282Z,100346.69
2022-09-17T14:45:02.378Z,100343.09
2022-09-17T14:50:24.993Z,100338.16
2022-09-17T14:55:33.454Z,100342.81
2022-09-17T15:27:22.692Z,100347.78
2022-09-17T15:38:18.903Z,100338.63
2022-09-17T15:43:26.374Z,100337.25
2022-09-17T15:48:37.355Z,100338.34
2022-09-17T16:04:28.536Z,100340.12
2022-09-17T16:09:43.212Z,100355.19
2022-09-17T16:30:52.570Z,100368.69
2022-09-17T16:46:35.530Z,100368.84
2022-09-17T16:56:59.822Z,100376.53
2022-09-17T17:02:03.810Z,100380.34
2022-09-17T17:07:06.588Z,100374.94
2022-09-17T17:12:14.854Z,100387.88
2022-09-17T17:17:18.568Z,100390.66
2022-09-17T17:22:21.476Z,100389.37
2022-09-17T17:27:29.624Z,100389.69
2022-09-17T17:32:32.377Z,100388.72
2022-09-17T17:37:35.099Z,100387.69
2022-09-17T17:42:43.206Z,100390.28
2022-09-17T17:58:28.714Z,100394.81
2022-09-17T18:03:31.448Z,100397.50
2022-09-17T18:08:36.570Z,100404.47
2022-09-17T18:13:45.541Z,100408.69
2022-09-17T18:18:48.747Z,100409.06
2022-09-17T18:23:52.112Z,100408.88
2022-09-17T18:29:02.311Z,100409.50
2022-09-17T18:34:12.239Z,100414.53
2022-09-17T18:44:43.447Z,100415.50
2022-09-17T18:49:46.181Z,100412.06
2022-09-17T19:00:12.835Z,100405.28
2022-09-17T19:05:16.389Z,100410.16
2022-09-17T19:10:20.275Z,100410.75
2022-09-17T19:20:46.940Z,100411.50
2022-09-17T19:36:31.248Z,100419.56
2022-09-17T19:46:52.993Z,100425.84
2022-09-17T19:51:55.896Z,100427.72
2022-09-17T19:56:58.695Z,100443.16
2022-09-17T20:02:08.053Z,100427.69
2022-09-17T20:07:10.942Z,100440.75
2022-09-17T20:12:13.669Z,100443.34
2022-09-17T20:17:21.772Z,100451.19
2022-09-17T20:22:24.788Z,100438.84
2022-09-17T20:27:27.663Z,100439.31
2022-09-17T20:32:37.133Z,100433.44
2022-09-17T20:43:03.103Z,100441.97
2022-09-17T20:48:11.380Z,100431.50
2022-09-17T20:53:14.312Z,100430.09
2022-09-17T20:58:17.151Z,100439.81
2022-09-17T21:03:25.228Z,100441.69
2022-09-17T21:08:28.356Z,100446.06
2022-09-17T21:13:31.459Z,100442.75
2022-09-17T21:18:40.005Z,100435.41
2022-09-17T21:23:43.812Z,100432.03
2022-09-17T21:28:50.085Z,100436.91
2022-09-17T21:34:01.638Z,100438.22
2022-09-17T21:55:27.139Z,100425.22
2022-09-17T22:00:32.278Z,100437.66
2022-09-17T22:05:36.286Z,100432.03
2022-09-17T22:10:45.458Z,100452.69
2022-09-17T22:58:51.279Z,100438.66
2022-09-17T23:10:36.570Z,100430.03
2022-09-17T23:15:40.270Z,100421.97
2022-09-17T23:26:04.060Z,100419.94
2022-09-17T23:31:11.549Z,100423.72
2022-09-17T23:41:39.089Z,100431.22
2022-09-17T23:52:07.320Z,100443.19
2022-09-17T23:57:10.212Z,100450.00
